createdAt,value
2023-09-19T00:00:50.129Z,1.00
2023-09-19T00:03:18.096Z,1.42
2023-09-19T00:05:46.635Z,1.73
2023-09-19T00:08:16.832Z,2.05
2023-09-19T00:10:45.398Z,2.03
2023-09-19T00:13:16.740Z,2.38
2023-09-19T00:15:52.061Z,2.60
2023-09-19T00:18:23.750Z,2.70
2023-09-19T00:20:53.511Z,1.70
2023-09-19T00:23:21.414Z,1.45
2023-09-19T00:25:49.747Z,2.63
2023-09-19T00:28:18.390Z,2.03
2023-09-19T00:30:46.383Z,1.15
2023-09-19T00:33:17.893Z,1.95
2023-09-19T00:35:50.174Z,1.85
2023-09-19T00:38:18.373Z,2.40
2023-09-19T00:40:47.104Z,2.13
2023-09-19T00:43:14.101Z,1.90
2023-09-19T00:45:43.886Z,3.40
2023-09-19T00:48:11.306Z,2.53
2023-09-19T00:50:44.952Z,2.45
2023-09-19T00:53:19.845Z,2.97
2023-09-19T00:55:47.560Z,2.33
2023-09-19T00:58:14.559Z,2.92
2023-09-19T01:00:41.733Z,2.33
2023-09-19T01:03:08.824Z,1.88
2023-09-19T01:05:35.840Z,2.70
2023-09-19T01:08:03.219Z,2.83
2023-09-19T01:10:30.237Z,2.45
2023-09-19T01:13:20.882Z,1.48
2023-09-19T01:16:13.452Z,1.98
2023-09-19T01:18:54.441Z,2.53
2023-09-19T01:21:35.690Z,2.22
2023-09-19T01:24:41.571Z,2.25
2023-09-19T01:27:35.007Z,2.22
2023-09-19T01:30:23.707Z,1.83
2023-09-19T01:32:53.763Z,1.52
2023-09-19T01:35:20.803Z,2.88
2023-09-19T01:37:47.720Z,2.10
2023-09-19T01:40:20.705Z,2.13
2023-09-19T01:43:43.977Z,2.25
2023-09-19T01:46:31.650Z,1.42
2023-09-19T01:49:03.661Z,2.25
2023-09-19T01:52:07.730Z,1.70
2023-09-19T01:54:39.484Z,2.33
2023-09-19T01:57:16.021Z,3.35
2023-09-19T01:59:55.596Z,2.05
2023-09-19T02:02:24.037Z,2.40
2023-09-19T02:04:51.788Z,2.85
2023-09-19T02:07:18.845Z,5.03
2023-09-19T02:09:45.750Z,1.90
2023-09-19T02:12:12.693Z,1.75
2023-09-19T02:14:39.611Z,2.33
2023-09-19T02:17:08.438Z,3.22
2023-09-19T02:19:35.571Z,1.75
2023-09-19T02:22:08.889Z,2.25
2023-09-19T02:24:36.525Z,1.90
2023-09-19T02:27:05.534Z,3.05
2023-09-19T02:32:00.305Z,2.58
2023-09-19T02:34:27.798Z,2.72
2023-09-19T02:36:57.278Z,3.13
2023-09-19T02:39:25.135Z,3.20
2023-09-19T02:41:52.101Z,1.58
2023-09-19T02:44:20.794Z,3.28
2023-09-19T02:46:48.639Z,2.97
2023-09-19T02:49:15.914Z,2.83
2023-09-19T02:51:42.891Z,2.30
2023-09-19T02:54:10.008Z,1.88
2023-09-19T02:56:38.396Z,3.78
2023-09-19T02:59:05.621Z,1.90
2023-09-19T03:01:33.524Z,3.28
2023-09-19T03:04:00.788Z,2.53
2023-09-19T03:06:27.850Z,2.92
2023-09-19T03:08:54.865Z,2.60
2023-09-19T03:11:24.448Z,2.78
2023-09-19T03:13:54.771Z,3.13
2023-09-19T03:16:23.403Z,3.22
2023-09-19T03:18:50.560Z,4.03
2023-09-19T03:21:18.520Z,2.38
2023-09-19T03:23:48.124Z,3.35
2023-09-19T03:26:17.799Z,2.85
2023-09-19T03:28:44.952Z,2.22
2023-09-19T03:31:12.475Z,2.85
2023-09-19T03:33:40.541Z,3.13
2023-09-19T03:36:08.435Z,3.70
2023-09-19T03:38:35.775Z,2.15
2023-09-19T03:41:03.738Z,2.90
2023-09-19T03:43:30.833Z,2.83
2023-09-19T03:45:57.939Z,2.40
2023-09-19T03:48:25.191Z,4.32
2023-09-19T03:50:53.832Z,4.63
2023-09-19T03:53:20.825Z,4.75
2023-09-19T03:55:48.119Z,3.80
2023-09-19T03:58:15.185Z,3.80
2023-09-19T21:01:06.648Z,3.75
2023-09-19T21:03:37.062Z,3.85
2023-09-19T21:06:09.846Z,4.65
2023-09-19T21:08:37.024Z,4.47
2023-09-19T21:11:17.684Z,5.72
2023-09-19T21:13:46.195Z,4.75
2023-09-19T21:16:16.404Z,5.28
2023-09-19T21:18:45.064Z,4.38
2023-09-19T21:21:12.689Z,4.60
2023-09-19T21:23:40.939Z,3.90
2023-09-19T21:26:08.972Z,6.50
2023-09-19T21:28:36.262Z,6.73
2023-09-19T21:31:05.455Z,6.78
2023-09-19T21:33:39.413Z,4.90
2023-09-19T21:36:21.955Z,3.92
2023-09-19T21:38:49.509Z,4.05
2023-09-19T21:41:18.276Z,4.93
2023-09-19T21:43:46.288Z,5.80
2023-09-19T21:46:13.555Z,4.82
2023-09-19T21:48:41.820Z,6.50
2023-09-19T21:51:09.242Z,4.93
2023-09-19T21:53:37.341Z,6.20
2023-09-19T21:56:06.658Z,7.32
2023-09-19T21:58:36.982Z,4.95
2023-09-19T22:01:07.940Z,4.40
2023-09-19T22:03:37.749Z,5.47
2023-09-19T22:06:09.274Z,4.93
2023-09-19T22:08:37.311Z,3.92
2023-09-19T22:11:04.652Z,6.03
2023-09-19T22:13:32.238Z,4.45
2023-09-19T22:16:00.660Z,5.65
2023-09-19T22:18:29.157Z,4.72
2023-09-19T22:21:04.048Z,4.78
2023-09-19T22:23:37.119Z,5.97
2023-09-19T22:26:04.946Z,4.03
2023-09-19T22:28:36.414Z,2.95
2023-09-19T22:31:13.688Z,3.65
2023-09-19T22:33:41.794Z,5.10
2023-09-19T22:36:09.407Z,5.03
2023-09-19T22:38:36.345Z,4.28
2023-09-19T22:41:07.288Z,5.28
2023-09-19T22:43:35.622Z,4.68
2023-09-19T22:46:08.220Z,5.03
2023-09-19T22:48:35.312Z,4.90
2023-09-19T22:51:07.329Z,4.43
2023-09-19T22:53:36.972Z,2.97
2023-09-19T22:56:12.254Z,5.13
2023-09-19T22:58:43.556Z,5.32
2023-09-19T23:01:28.678Z,5.13
2023-09-19T23:04:11.552Z,4.68
2023-09-19T23:06:49.498Z,5.03
2023-09-19T23:09:24.589Z,5.07
2023-09-19T23:12:07.892Z,5.07
2023-09-19T23:14:40.244Z,4.65
2023-09-19T23:17:23.016Z,5.20
2023-09-19T23:19:51.052Z,5.60
2023-09-19T23:22:18.138Z,5.20
2023-09-19T23:24:51.374Z,3.55
2023-09-19T23:27:26.819Z,5.43
2023-09-19T23:29:56.563Z,3.78
2023-09-19T23:32:23.675Z,4.85
2023-09-19T23:34:50.962Z,5.75
2023-09-19T23:37:21.798Z,4.78
2023-09-19T23:39:48.978Z,5.88
2023-09-19T23:42:16.141Z,4.82
2023-09-19T23:44:43.534Z,5.28
2023-09-19T23:47:12.044Z,5.00
2023-09-19T23:49:42.702Z,3.63
2023-09-19T23:52:12.639Z,5.30
2023-09-19T23:54:41.902Z,5.10
2023-09-19T23:57:11.367Z,3.85
2023-09-19T23:59:44.146Z,4.38
